Time;durP1;ratioP1;P1;durP2;ratioP2;P2;SDS_P1;SDS_P2;PMS_P1;PMS_P2;Temp;Humidity;BMP_temperature;BMP_pressure;BME280_temperature;BME280_humidity;BME280_pressure;Samples;Min_cycle;Max_cycle;Signal;HPM_P1;HPM_P2
2023/09/20 00:00:36;;;;;;;3.40;2.73;;;19.80;99.90;;;;;;5024895;28;20494;-73
2023/09/20 00:03:01;;;;;;;3.77;3.00;;;19.80;99.90;;;;;;5016702;28;21255;-74
2023/09/20 00:05:27;;;;;;;4.47;3.63;;;19.80;99.90;;;;;;5021582;28;20431;-74
2023/09/20 00:07:56;;;;;;;3.90;3.00;;;19.80;99.90;;;;;;5022815;28;20430;-74
2023/09/20 00:10:27;;;;;;;3.97;3.13;;;19.80;99.90;;;;;;5020938;28;20196;-74
2023/09/20 00:12:52;;;;;;;7.60;3.10;;;19.80;99.90;;;;;;5024442;28;20806;-75
2023/09/20 00:15:18;;;;;;;4.93;2.43;;;19.80;99.90;;;;;;5024140;28;20454;-73
2023/09/20 00:17:44;;;;;;;3.70;2.67;;;19.80;99.90;;;;;;5038232;28;20219;-72
2023/09/20 00:20:13;;;;;;;3.30;2.60;;;19.90;99.90;;;;;;5019671;28;20629;-74
2023/09/20 00:22:43;;;;;;;4.07;2.30;;;19.90;99.90;;;;;;5029456;28;20447;-73
2023/09/20 00:25:13;;;;;;;2.90;2.57;;;19.90;99.90;;;;;;5023855;28;20431;-73
2023/09/20 00:27:40;;;;;;;5.40;2.57;;;19.90;99.90;;;;;;5002174;28;20436;-73
2023/09/20 00:30:10;;;;;;;3.37;2.40;;;19.90;99.90;;;;;;5023716;28;20514;-73
2023/09/20 00:32:40;;;;;;;4.07;2.70;;;19.80;99.90;;;;;;5012534;28;20446;-73
2023/09/20 00:35:13;;;;;;;5.07;3.13;;;19.80;99.90;;;;;;5021157;28;20464;-73
2023/09/20 00:37:43;;;;;;;4.00;2.90;;;19.80;99.90;;;;;;5021211;28;20427;-73
2023/09/20 00:40:17;;;;;;;4.37;2.87;;;19.80;99.90;;;;;;5000416;28;20462;-73
2023/09/20 00:42:44;;;;;;;4.10;2.57;;;19.80;99.90;;;;;;5022024;28;20836;-73
2023/09/20 00:45:09;;;;;;;4.10;2.40;;;19.80;99.90;;;;;;5036095;28;20434;-73
2023/09/20 00:47:40;;;;;;;3.90;3.00;;;19.80;99.90;;;;;;5021703;28;20438;-73
2023/09/20 00:50:12;;;;;;;4.10;2.80;;;19.70;99.90;;;;;;5020709;28;20203;-74
2023/09/20 00:52:42;;;;;;;4.10;2.70;;;19.70;99.90;;;;;;5021001;28;20435;-74
2023/09/20 00:55:20;;;;;;;3.07;2.63;;;19.60;99.90;;;;;;5021449;28;20427;-73
2023/09/20 00:57:48;;;;;;;6.23;2.63;;;19.50;99.90;;;;;;5020776;28;20427;-73
2023/09/20 01:00:30;;;;;;;3.50;2.80;;;19.50;99.90;;;;;;5018414;28;20451;-74
2023/09/20 01:02:58;;;;;;;6.40;3.00;;;19.60;99.90;;;;;;5021152;28;20438;-74
2023/09/20 01:05:25;;;;;;;4.47;3.20;;;19.60;99.90;;;;;;5017148;28;20435;-74
2023/09/20 01:07:54;;;;;;;3.17;2.40;;;19.60;99.90;;;;;;5022088;28;20512;-73
2023/09/20 01:10:23;;;;;;;3.83;2.57;;;19.60;99.90;;;;;;5023574;28;20463;-75
2023/09/20 01:12:54;;;;;;;5.10;2.90;;;19.60;99.90;;;;;;5020775;28;20439;-73
2023/09/20 01:15:21;;;;;;;3.10;2.77;;;19.60;99.90;;;;;;5019664;28;20450;-73
2023/09/20 01:17:47;;;;;;;5.47;3.03;;;19.60;99.90;;;;;;5001864;28;20785;-73
2023/09/20 01:20:14;;;;;;;3.07;2.47;;;19.60;99.90;;;;;;5004971;28;20791;-75
2023/09/20 01:22:40;;;;;;;3.10;2.80;;;19.60;99.90;;;;;;5024740;28;20457;-74
2023/09/20 01:25:09;;;;;;;3.80;2.97;;;19.50;99.90;;;;;;5019618;28;20447;-73
2023/09/20 01:27:37;;;;;;;5.20;2.90;;;19.50;99.90;;;;;;5023348;28;20594;-74
2023/09/20 01:30:03;;;;;;;2.97;2.40;;;19.50;99.90;;;;;;5024529;28;20430;-74
2023/09/20 01:32:29;;;;;;;5.47;2.60;;;19.50;99.90;;;;;;5004554;28;20477;-74
2023/09/20 01:34:55;;;;;;;4.27;2.60;;;19.50;99.90;;;;;;5020158;28;20446;-76
2023/09/20 01:37:21;;;;;;;5.20;2.60;;;19.50;99.90;;;;;;5017387;28;20439;-75
2023/09/20 01:39:47;;;;;;;3.80;2.83;;;19.40;99.90;;;;;;5019099;28;20366;-75
2023/09/20 01:42:15;;;;;;;5.53;2.40;;;19.40;99.90;;;;;;5021616;28;20199;-74
2023/09/20 01:44:41;;;;;;;4.83;3.07;;;19.40;99.90;;;;;;5016680;28;20443;-75
2023/09/20 01:47:06;;;;;;;4.10;2.47;;;19.40;99.90;;;;;;5021976;28;20407;-74
2023/09/20 01:49:34;;;;;;;3.70;2.53;;;19.40;99.90;;;;;;5038852;28;20187;-75
2023/09/20 01:52:00;;;;;;;3.10;2.40;;;19.40;99.90;;;;;;5019187;28;20253;-77
2023/09/20 01:54:28;;;;;;;4.07;2.70;;;19.40;99.90;;;;;;5016815;28;20434;-76
2023/09/20 01:56:55;;;;;;;3.90;2.73;;;19.40;99.90;;;;;;5014740;28;20989;-78
2023/09/20 01:59:23;;;;;;;4.60;3.00;;;19.30;99.90;;;;;;5021650;28;20471;-75
2023/09/20 02:01:50;;;;;;;3.60;2.80;;;19.30;99.90;;;;;;5019344;28;20497;-77
2023/09/20 02:04:15;;;;;;;6.27;2.80;;;19.30;99.90;;;;;;5020013;28;20522;-75
2023/09/20 02:06:41;;;;;;;3.20;2.73;;;19.30;99.90;;;;;;5026242;28;20562;-75
2023/09/20 02:09:08;;;;;;;3.60;2.80;;;19.20;99.90;;;;;;5017830;28;20705;-75
2023/09/20 02:11:34;;;;;;;3.20;2.63;;;19.20;99.90;;;;;;5045126;28;20414;-76
2023/09/20 02:14:00;;;;;;;4.60;2.60;;;19.10;99.90;;;;;;5023955;28;20414;-74
2023/09/20 02:16:26;;;;;;;5.47;2.50;;;19.10;99.90;;;;;;5025174;28;20181;-74
2023/09/20 02:18:52;;;;;;;4.23;3.03;;;19.20;99.90;;;;;;5026667;28;20455;-74
2023/09/20 02:21:18;;;;;;;4.40;3.00;;;19.10;99.90;;;;;;5029930;28;20187;-74
2023/09/20 02:23:44;;;;;;;4.00;2.70;;;19.00;99.90;;;;;;5026235;28;21152;-74
2023/09/20 02:26:12;;;;;;;5.83;2.70;;;19.00;99.90;;;;;;5041934;28;20173;-74
2023/09/20 02:28:38;;;;;;;5.20;3.20;;;19.00;99.90;;;;;;5041851;28;20427;-74
2023/09/20 02:31:03;;;;;;;3.83;2.53;;;19.00;99.90;;;;;;5030479;28;20435;-74
2023/09/20 02:33:31;;;;;;;3.77;2.77;;;19.00;99.90;;;;;;5028627;28;20829;-73
2023/09/20 02:35:57;;;;;;;3.43;2.30;;;18.90;99.90;;;;;;5030711;28;20228;-74
2023/09/20 02:38:23;;;;;;;3.60;2.70;;;18.90;99.90;;;;;;5036294;28;20414;-73
2023/09/20 02:40:50;;;;;;;7.00;3.17;;;18.80;99.90;;;;;;5035784;28;20231;-73
2023/09/20 02:43:16;;;;;;;5.17;2.83;;;18.80;99.90;;;;;;5023289;28;20223;-74
2023/09/20 02:45:45;;;;;;;3.93;2.83;;;18.80;99.90;;;;;;5023628;28;20506;-73
2023/09/20 02:48:11;;;;;;;6.70;2.70;;;18.80;99.90;;;;;;5021902;28;20436;-73
2023/09/20 02:50:36;;;;;;;4.63;2.93;;;18.70;99.90;;;;;;5021452;28;20416;-73
2023/09/20 02:53:04;;;;;;;3.30;2.37;;;18.70;99.90;;;;;;5019925;28;20219;-73
2023/09/20 02:55:31;;;;;;;3.17;2.70;;;18.70;99.90;;;;;;5019755;28;20187;-73
2023/09/20 02:57:57;;;;;;;3.23;2.50;;;18.70;99.90;;;;;;5020639;28;20412;-72
2023/09/20 03:00:27;;;;;;;4.40;3.00;;;18.70;99.90;;;;;;5018011;28;20474;-73
2023/09/20 03:02:57;;;;;;;4.30;2.97;;;18.70;99.90;;;;;;5020277;28;20283;-72
2023/09/20 03:05:34;;;;;;;3.73;2.73;;;18.70;99.90;;;;;;5022113;28;20403;-73
2023/09/20 03:08:04;;;;;;;5.07;2.47;;;18.70;99.90;;;;;;5021846;28;20403;-74
2023/09/20 03:10:31;;;;;;;4.53;2.90;;;18.70;99.90;;;;;;5028792;28;20918;-73
2023/09/20 03:12:57;;;;;;;4.00;2.40;;;18.70;99.90;;;;;;5035976;28;20446;-73
2023/09/20 03:15:25;;;;;;;3.83;2.40;;;18.70;99.90;;;;;;5019794;28;20435;-73
2023/09/20 03:18:03;;;;;;;6.50;3.10;;;18.70;99.90;;;;;;5037955;28;20415;-75
2023/09/20 03:20:32;;;;;;;5.67;3.07;;;18.70;99.90;;;;;;5019843;28;20462;-73
2023/09/20 03:22:59;;;;;;;4.60;2.90;;;18.70;99.90;;;;;;5024958;28;20997;-73
2023/09/20 03:25:28;;;;;;;3.67;2.60;;;18.70;99.90;;;;;;5020913;28;20435;-75
2023/09/20 03:27:55;;;;;;;3.20;2.60;;;18.70;99.90;;;;;;5021517;28;20446;-75
2023/09/20 03:30:21;;;;;;;2.97;2.50;;;18.70;99.90;;;;;;5000430;28;20493;-76
2023/09/20 03:32:48;;;;;;;3.57;2.80;;;18.80;99.90;;;;;;5003658;28;20455;-75
2023/09/20 03:35:14;;;;;;;8.33;3.07;;;18.80;99.90;;;;;;5020606;28;20411;-75
2023/09/20 03:37:41;;;;;;;4.57;2.70;;;18.80;99.90;;;;;;5019960;28;20407;-75
2023/09/20 03:40:16;;;;;;;6.03;2.80;;;18.80;99.90;;;;;;5013961;28;20468;-77
2023/09/20 03:42:42;;;;;;;5.10;2.67;;;18.80;99.90;;;;;;5021832;28;20439;-76
2023/09/20 03:45:10;;;;;;;3.90;2.73;;;18.80;99.90;;;;;;5017795;28;20480;-76
2023/09/20 03:47:38;;;;;;;3.70;2.90;;;18.80;99.90;;;;;;5021111;28;20481;-77
2023/09/20 03:50:05;;;;;;;3.90;3.00;;;18.90;99.90;;;;;;5015455;28;20419;-77
2023/09/20 03:52:33;;;;;;;4.60;2.83;;;18.90;99.90;;;;;;5015949;28;20574;-77
2023/09/20 03:54:59;;;;;;;5.50;2.80;;;18.90;99.90;;;;;;5023901;28;20479;-77
2023/09/20 03:57:25;;;;;;;5.50;2.63;;;18.90;99.90;;;;;;5016593;28;20423;-76
2023/09/20 03:59:52;;;;;;;3.60;2.63;;;18.90;99.90;;;;;;5021778;28;20385;-77
2023/09/20 04:02:18;;;;;;;3.53;3.00;;;18.90;99.90;;;;;;5011689;28;21888;-77
2023/09/20 04:04:44;;;;;;;3.30;2.37;;;18.90;99.90;;;;;;5026202;28;20431;-77
2023/09/20 04:07:09;;;;;;;3.43;2.37;;;18.80;99.90;;;;;;5017546;28;20430;-77
2023/09/20 04:09:35;;;;;;;4.43;2.60;;;18.90;99.90;;;;;;5017583;28;20282;-76
2023/09/20 04:12:03;;;;;;;5.00;2.97;;;18.90;99.90;;;;;;4984979;28;20203;-74
2023/09/20 04:14:28;;;;;;;5.40;2.80;;;18.80;99.90;;;;;;5022204;28;20188;-76
2023/09/20 04:16:54;;;;;;;4.80;2.80;;;18.80;99.90;;;;;;5021645;28;20431;-75
2023/09/20 04:19:21;;;;;;;5.43;3.17;;;18.80;99.90;;;;;;5021640;28;20207;-75
2023/09/20 04:21:47;;;;;;;3.77;3.03;;;18.80;99.90;;;;;;5016652;28;20203;-76
2023/09/20 04:24:14;;;;;;;3.70;3.00;;;18.80;99.90;;;;;;5030692;28;20959;-76
2023/09/20 04:26:40;;;;;;;3.27;2.60;;;18.80;99.90;;;;;;5019330;28;20427;-76
2023/09/20 04:29:06;;;;;;;3.80;2.87;;;18.80;99.90;;;;;;5019867;28;21018;-76
2023/09/20 04:31:33;;;;;;;3.63;2.80;;;18.80;99.90;;;;;;5020786;28;20181;-76
2023/09/20 04:33:59;;;;;;;3.50;2.80;;;18.80;99.90;;;;;;5022813;28;20442;-76
2023/09/20 04:36:27;;;;;;;6.00;3.30;;;18.80;99.90;;;;;;5019539;28;21153;-75
2023/09/20 04:38:52;;;;;;;4.50;2.60;;;18.80;99.90;;;;;;5014761;28;20934;-76
2023/09/20 04:41:18;;;;;;;3.60;2.90;;;18.80;99.90;;;;;;5016178;28;20415;-75
2023/09/20 04:43:44;;;;;;;3.40;2.53;;;18.80;99.90;;;;;;5017221;28;20185;-75
2023/09/20 04:46:10;;;;;;;4.60;2.50;;;18.80;99.90;;;;;;5017786;28;20188;-76
2023/09/20 04:48:39;;;;;;;5.53;2.70;;;18.70;99.90;;;;;;5000053;28;20195;-75
2023/09/20 04:51:05;;;;;;;6.17;3.47;;;18.70;99.90;;;;;;5002374;28;20431;-76
2023/09/20 04:53:33;;;;;;;5.03;3.23;;;18.70;99.90;;;;;;5013967;28;20446;-77
2023/09/20 04:55:59;;;;;;;4.70;2.80;;;18.70;99.90;;;;;;5001246;28;20176;-77
2023/09/20 04:58:25;;;;;;;3.87;2.93;;;18.70;99.90;;;;;;5024800;28;21374;-78
2023/09/20 05:00:51;;;;;;;3.80;2.97;;;18.70;99.90;;;;;;5000174;28;20810;-77
2023/09/20 05:03:19;;;;;;;3.00;2.43;;;18.70;99.90;;;;;;5016550;28;20578;-75
2023/09/20 05:05:47;;;;;;;4.70;3.30;;;18.70;99.90;;;;;;5020877;28;20930;-76
2023/09/20 05:08:18;;;;;;;6.83;3.40;;;18.60;99.90;;;;;;5019448;28;20417;-76
2023/09/20 05:10:44;;;;;;;3.53;3.10;;;18.60;99.90;;;;;;5017025;28;20438;-77
2023/09/20 05:13:10;;;;;;;5.60;2.90;;;18.60;99.90;;;;;;5019050;28;20455;-77
2023/09/20 05:15:38;;;;;;;5.10;3.50;;;18.60;99.90;;;;;;5015202;28;20682;-77
2023/09/20 05:18:05;;;;;;;4.03;3.23;;;18.60;99.90;;;;;;5015735;28;20199;-77
2023/09/20 05:20:32;;;;;;;4.70;3.50;;;18.60;99.90;;;;;;5017637;28;20498;-77
2023/09/20 05:22:59;;;;;;;4.87;2.90;;;18.50;99.90;;;;;;5022721;28;20435;-76
2023/09/20 05:25:25;;;;;;;5.50;3.13;;;18.60;99.90;;;;;;5014985;28;20684;-76
2023/09/20 05:27:51;;;;;;;5.13;3.13;;;18.60;99.90;;;;;;5022947;28;20469;-78
2023/09/20 05:30:18;;;;;;;6.47;3.40;;;18.60;99.90;;;;;;5000342;28;20546;-76
2023/09/20 05:32:45;;;;;;;5.17;3.10;;;18.50;99.90;;;;;;5016245;28;20459;-75
2023/09/20 05:35:11;;;;;;;5.23;3.07;;;18.60;99.90;;;;;;5014089;28;20433;-73
2023/09/20 05:37:38;;;;;;;4.30;2.63;;;18.60;99.90;;;;;;5017153;28;20468;-77
2023/09/20 05:40:17;;;;;;;4.40;3.33;;;18.50;99.90;;;;;;5011093;28;20469;-77
2023/09/20 05:42:50;;;;;;;4.87;2.93;;;18.50;99.90;;;;;;4994858;28;20455;-78
2023/09/20 05:45:16;;;;;;;5.03;3.10;;;18.50;99.90;;;;;;5019019;28;20510;-77
2023/09/20 05:47:43;;;;;;;4.27;2.80;;;18.50;99.90;;;;;;4997271;28;20796;-77
2023/09/20 05:50:10;;;;;;;4.87;3.77;;;18.50;99.90;;;;;;5023500;28;20438;-77
2023/09/20 05:52:40;;;;;;;4.27;2.87;;;18.60;99.90;;;;;;5019220;28;20770;-79
2023/09/20 05:55:11;;;;;;;5.87;2.90;;;18.60;99.90;;;;;;5003642;28;20435;-77
2023/09/20 05:57:38;;;;;;;4.80;2.80;;;18.60;99.90;;;;;;5001184;28;20437;-76
2023/09/20 06:00:17;;;;;;;4.97;3.17;;;18.60;99.90;;;;;;5033699;28;20478;-76
2023/09/20 06:02:43;;;;;;;6.50;3.70;;;18.60;99.90;;;;;;5022978;28;20434;-77
2023/09/20 06:05:12;;;;;;;6.33;3.20;;;18.50;99.90;;;;;;5033861;28;20474;-76
2023/09/20 06:07:40;;;;;;;4.03;2.63;;;18.60;99.90;;;;;;5020018;28;20430;-77
2023/09/20 06:10:09;;;;;;;4.50;3.07;;;18.60;99.90;;;;;;5013585;28;20441;-77
2023/09/20 06:12:34;;;;;;;5.53;4.03;;;18.70;99.90;;;;;;5007653;28;20631;-78
2023/09/20 06:15:00;;;;;;;4.43;2.77;;;18.70;99.90;;;;;;5019898;28;20521;-78
2023/09/20 06:17:29;;;;;;;4.63;3.23;;;18.70;99.90;;;;;;5012984;28;20652;-77
2023/09/20 06:19:57;;;;;;;4.20;3.50;;;18.70;99.90;;;;;;5012232;28;20212;-76
2023/09/20 06:22:23;;;;;;;6.37;3.47;;;18.80;99.90;;;;;;5006209;28;20581;-76
2023/09/20 06:24:49;;;;;;;7.33;3.40;;;18.80;99.90;;;;;;5018554;28;20437;-76
2023/09/20 06:27:15;;;;;;;4.73;3.00;;;18.90;99.90;;;;;;5011651;28;20451;-75
2023/09/20 06:29:40;;;;;;;7.70;4.03;;;18.90;99.90;;;;;;5014816;28;20524;-76
2023/09/20 06:32:06;;;;;;;3.70;2.90;;;18.90;99.90;;;;;;5010921;28;20208;-76
2023/09/20 06:34:32;;;;;;;3.50;2.80;;;18.90;99.90;;;;;;5002685;28;20283;-77
2023/09/20 06:36:58;;;;;;;4.53;3.20;;;18.90;99.90;;;;;;5023541;28;20183;-77
2023/09/20 06:39:25;;;;;;;4.00;2.90;;;19.00;99.90;;;;;;5021973;28;20262;-78
2023/09/20 06:41:51;;;;;;;4.37;3.10;;;19.00;99.90;;;;;;5026126;28;20542;-77
2023/09/20 06:44:17;;;;;;;7.17;2.90;;;19.00;99.90;;;;;;5019545;28;20456;-78
2023/09/20 06:46:43;;;;;;;4.93;3.30;;;19.00;99.90;;;;;;5021306;28;20204;-79
2023/09/20 06:49:09;;;;;;;3.90;3.07;;;19.00;99.90;;;;;;5016695;28;20684;-78
2023/09/20 06:51:35;;;;;;;3.90;3.10;;;19.00;99.90;;;;;;5003459;28;20438;-78
2023/09/20 06:54:00;;;;;;;5.43;3.40;;;19.00;99.90;;;;;;5018699;28;20501;-77
2023/09/20 06:56:26;;;;;;;4.40;3.40;;;19.00;99.90;;;;;;5024211;28;20653;-78
2023/09/20 06:58:55;;;;;;;5.07;3.90;;;19.00;99.90;;;;;;5000160;28;20215;-78
2023/09/20 07:01:23;;;;;;;6.23;3.00;;;19.00;99.90;;;;;;5020132;28;20188;-77
2023/09/20 07:03:49;;;;;;;4.00;3.33;;;19.00;99.90;;;;;;5026691;28;20454;-78
2023/09/20 07:06:15;;;;;;;8.83;3.20;;;18.80;99.90;;;;;;5017520;28;20428;-78
2023/09/20 07:08:40;;;;;;;4.57;3.23;;;18.80;99.90;;;;;;5002421;28;20510;-79
2023/09/20 07:11:08;;;;;;;6.10;3.30;;;18.80;99.90;;;;;;5001064;28;20232;-77
2023/09/20 07:13:35;;;;;;;4.77;3.23;;;18.80;99.90;;;;;;5020800;28;20454;-76
2023/09/20 07:16:08;;;;;;;5.67;4.50;;;18.70;99.90;;;;;;5016258;28;20187;-77
2023/09/20 07:18:35;;;;;;;5.63;4.10;;;18.70;99.90;;;;;;5012756;28;20526;-78
2023/09/20 07:21:02;;;;;;;5.60;3.23;;;18.70;99.90;;;;;;4998558;28;20450;-79
2023/09/20 07:23:29;;;;;;;5.33;3.27;;;18.80;99.90;;;;;;5019539;28;20497;-77
2023/09/20 07:25:55;;;;;;;7.30;3.70;;;18.60;99.90;;;;;;5000781;28;20647;-77
2023/09/20 07:28:23;;;;;;;3.70;2.80;;;18.50;99.90;;;;;;5000472;28;20618;-78
2023/09/20 07:30:50;;;;;;;5.80;3.70;;;18.60;99.90;;;;;;4996709;28;20463;-77
2023/09/20 07:33:20;;;;;;;5.33;3.90;;;18.60;99.90;;;;;;5010633;28;20497;-76
2023/09/20 07:35:48;;;;;;;3.20;2.80;;;18.60;99.90;;;;;;5012927;28;20188;-76
2023/09/20 07:38:24;;;;;;;5.30;3.40;;;18.70;99.90;;;;;;5001936;28;20439;-75
2023/09/20 07:40:50;;;;;;;5.07;2.90;;;18.70;99.90;;;;;;5017056;28;20855;-78
2023/09/20 07:43:19;;;;;;;4.50;3.00;;;18.80;99.90;;;;;;5018451;28;20489;-77
2023/09/20 07:45:45;;;;;;;7.40;3.00;;;19.00;99.90;;;;;;5021701;28;20201;-78
2023/09/20 07:48:12;;;;;;;4.10;2.90;;;19.00;99.90;;;;;;5035313;28;20430;-78
2023/09/20 07:50:43;;;;;;;6.67;3.10;;;18.90;99.90;;;;;;5012577;28;20852;-78
2023/09/20 07:53:13;;;;;;;15.93;3.80;;;19.00;99.90;;;;;;5015049;28;20804;-75
2023/09/20 07:55:45;;;;;;;3.53;3.10;;;19.10;99.90;;;;;;5018855;28;20427;-79
2023/09/20 07:58:15;;;;;;;6.70;3.50;;;19.10;99.90;;;;;;5022070;28;20458;-77
2023/09/20 08:00:41;;;;;;;17.83;3.90;;;19.00;99.90;;;;;;5008883;28;20560;-78
2023/09/20 08:03:07;;;;;;;5.80;3.40;;;19.00;99.90;;;;;;5015342;28;20467;-77
2023/09/20 08:05:33;;;;;;;13.40;3.83;;;19.00;99.90;;;;;;5031642;28;20438;-78
2023/09/20 08:08:02;;;;;;;6.10;3.60;;;19.00;99.90;;;;;;5023527;28;20180;-80
2023/09/20 08:10:28;;;;;;;3.20;2.80;;;19.00;99.90;;;;;;5037062;28;20493;-78
2023/09/20 08:12:53;;;;;;;4.43;3.27;;;19.10;99.90;;;;;;5004514;28;20447;-77
2023/09/20 08:15:20;;;;;;;4.50;2.90;;;19.10;99.90;;;;;;5014702;28;20219;-77
2023/09/20 08:20:34;;;;;;;5.70;2.93;;;19.30;99.90;;;;;;5018070;28;20470;-76
2023/09/20 09:01:37;;;;;;;4.87;3.40;;;19.70;99.90;;;;;;5016813;28;20433;-75
2023/09/20 09:04:05;;;;;;;3.90;3.20;;;19.70;99.90;;;;;;5014410;28;20972;-76
2023/09/20 09:06:31;;;;;;;3.50;2.30;;;19.80;99.90;;;;;;5019297;28;20445;-76
2023/09/20 09:08:57;;;;;;;3.73;3.17;;;19.90;99.90;;;;;;5021141;28;20506;-76
2023/09/20 09:11:24;;;;;;;3.80;2.87;;;19.90;99.90;;;;;;5018049;28;20525;-75
2023/09/20 09:13:51;;;;;;;5.67;3.40;;;20.00;99.90;;;;;;5016798;28;20207;-74
2023/09/20 09:16:19;;;;;;;6.13;3.30;;;20.20;99.90;;;;;;5018656;28;20466;-74
2023/09/20 09:18:45;;;;;;;3.93;2.80;;;20.40;99.90;;;;;;5028791;28;20454;-75
2023/09/20 09:21:14;;;;;;;3.27;2.87;;;20.40;99.90;;;;;;4998381;28;20432;-75
2023/09/20 09:23:45;;;;;;;4.80;3.00;;;20.60;99.90;;;;;;5002255;28;20250;-75
2023/09/20 09:26:11;;;;;;;3.80;2.60;;;20.70;99.90;;;;;;5017185;28;20471;-73
2023/09/20 09:28:46;;;;;;;4.50;2.70;;;20.70;99.90;;;;;;5018410;28;20814;-74
2023/09/20 09:31:13;;;;;;;8.10;2.80;;;20.80;99.90;;;;;;4998438;28;20879;-76
2023/09/20 09:33:39;;;;;;;4.13;2.87;;;21.00;99.90;;;;;;5004536;28;20963;-75
2023/09/20 09:36:06;;;;;;;4.03;2.57;;;21.00;99.90;;;;;;5016118;28;20505;-76
2023/09/20 09:38:34;;;;;;;5.03;2.80;;;21.10;99.90;;;;;;5015742;28;20426;-76
2023/09/20 09:41:01;;;;;;;2.90;2.27;;;21.20;99.90;;;;;;5003024;28;20783;-76
2023/09/20 09:43:28;;;;;;;3.33;2.43;;;21.40;99.90;;;;;;5003953;28;20655;-74
2023/09/20 09:46:00;;;;;;;7.93;3.83;;;21.40;99.90;;;;;;5016258;28;20462;-75
2023/09/20 09:48:29;;;;;;;5.40;3.17;;;21.40;99.90;;;;;;5001562;28;20820;-76
2023/09/20 09:51:04;;;;;;;4.83;3.20;;;21.50;99.90;;;;;;5016321;28;20828;-76
2023/09/20 09:53:30;;;;;;;3.83;2.87;;;21.60;99.90;;;;;;5013616;28;20512;-74
2023/09/20 09:55:56;;;;;;;7.60;3.70;;;21.60;99.90;;;;;;5014924;28;20455;-75
2023/09/20 09:58:22;;;;;;;4.47;3.00;;;21.70;99.90;;;;;;5014325;28;20495;-76
2023/09/20 10:00:51;;;;;;;6.07;3.17;;;21.70;99.90;;;;;;5014841;28;20985;-76
2023/09/20 10:03:32;;;;;;;8.33;2.60;;;21.80;99.90;;;;;;5015870;28;20200;-76
2023/09/20 10:06:12;;;;;;;4.03;2.77;;;22.00;99.90;;;;;;5016570;28;20787;-75
2023/09/20 10:08:40;;;;;;;6.33;3.00;;;22.00;99.90;;;;;;5014149;28;20418;-74
2023/09/20 10:11:08;;;;;;;4.17;3.17;;;22.10;99.90;;;;;;5018169;28;20989;-76
2023/09/20 10:13:37;;;;;;;4.00;2.97;;;22.10;99.90;;;;;;5025653;28;20463;-74
2023/09/20 10:16:10;;;;;;;8.87;4.97;;;22.30;99.90;;;;;;5014058;28;20499;-74
2023/09/20 10:18:54;;;;;;;5.57;3.70;;;22.30;99.90;;;;;;5013398;28;20423;-75
2023/09/20 10:21:25;;;;;;;3.43;2.70;;;22.30;99.90;;;;;;5014227;28;20919;-74
2023/09/20 10:23:58;;;;;;;3.80;2.77;;;22.40;99.90;;;;;;5016291;28;20683;-74
2023/09/20 10:26:24;;;;;;;2.90;2.43;;;22.60;99.90;;;;;;5007655;28;20443;-77
2023/09/20 10:29:18;;;;;;;4.40;2.80;;;22.60;99.90;;;;;;5015967;28;22077;-76
2023/09/20 10:31:47;;;;;;;6.20;3.20;;;22.50;99.90;;;;;;4997633;28;20180;-75
2023/09/20 10:34:13;;;;;;;4.83;2.73;;;22.60;99.90;;;;;;5000412;28;20424;-76
2023/09/20 10:36:52;;;;;;;5.10;2.80;;;22.70;99.90;;;;;;5018805;28;20443;-76
2023/09/20 10:39:17;;;;;;;3.90;2.97;;;22.90;99.90;;;;;;5013734;28;20546;-76
2023/09/20 10:41:44;;;;;;;3.23;2.60;;;22.90;99.90;;;;;;5012850;28;20562;-75
2023/09/20 10:44:30;;;;;;;2.90;2.60;;;23.10;99.90;;;;;;5016644;28;20533;-76
2023/09/20 10:47:04;;;;;;;2.60;2.20;;;23.20;99.90;;;;;;5018040;28;20428;-75
2023/09/20 10:49:47;;;;;;;5.30;2.83;;;23.30;99.90;;;;;;5014595;28;20921;-75
2023/09/20 10:52:31;;;;;;;3.40;3.07;;;23.20;99.90;;;;;;5014760;28;20977;-77
2023/09/20 10:55:22;;;;;;;4.43;2.60;;;23.10;99.90;;;;;;5017887;28;20458;-76
2023/09/20 10:57:50;;;;;;;5.80;2.47;;;23.20;99.90;;;;;;5013327;28;20932;-75
2023/09/20 11:00:25;;;;;;;4.97;2.90;;;23.20;99.90;;;;;;5009476;28;20513;-76
2023/09/20 11:02:53;;;;;;;6.23;2.53;;;23.20;99.90;;;;;;5005224;28;20461;-75
2023/09/20 11:05:19;;;;;;;5.43;3.40;;;23.40;99.90;;;;;;5030111;28;20787;-76
2023/09/20 11:07:48;;;;;;;3.83;2.50;;;23.50;99.90;;;;;;5017148;28;20442;-75
2023/09/20 11:10:19;;;;;;;4.80;2.70;;;23.50;99.90;;;;;;4998135;28;20176;-76
2023/09/20 11:12:45;;;;;;;3.43;2.83;;;23.50;99.90;;;;;;5030461;28;20469;-75
2023/09/20 11:15:13;;;;;;;4.30;3.10;;;23.60;99.90;;;;;;5014583;28;20987;-77
2023/09/20 11:17:38;;;;;;;5.33;3.23;;;23.60;99.90;;;;;;5014184;28;20419;-75
2023/09/20 11:20:06;;;;;;;5.70;3.33;;;23.70;99.90;;;;;;5002500;28;20467;-75
2023/09/20 11:22:32;;;;;;;3.77;2.60;;;23.80;99.90;;;;;;5021196;28;20200;-77
2023/09/20 11:24:57;;;;;;;4.27;2.77;;;23.90;99.90;;;;;;5020137;28;20400;-78
2023/09/20 11:27:24;;;;;;;6.10;2.60;;;23.90;99.90;;;;;;4998508;28;20466;-77
2023/09/20 11:29:50;;;;;;;4.70;2.83;;;23.90;99.90;;;;;;5020402;28;20219;-78
2023/09/20 11:32:21;;;;;;;4.57;2.60;;;24.00;99.90;;;;;;5018195;28;20706;-76
2023/09/20 11:34:49;;;;;;;3.43;2.70;;;24.10;99.90;;;;;;5022172;28;20262;-78
2023/09/20 11:37:17;;;;;;;3.70;2.87;;;24.20;99.90;;;;;;5021872;28;20415;-76
2023/09/20 11:39:47;;;;;;;4.50;2.80;;;24.30;99.90;;;;;;5021865;28;20471;-77
2023/09/20 11:42:26;;;;;;;6.60;4.20;;;24.40;99.90;;;;;;5017961;28;20423;-75
2023/09/20 11:45:08;;;;;;;3.90;2.30;;;24.60;99.90;;;;;;5014602;28;21688;-77
2023/09/20 11:47:37;;;;;;;4.53;2.73;;;24.60;99.90;;;;;;5017874;28;20438;-74
2023/09/20 11:50:04;;;;;;;4.03;2.87;;;24.80;99.90;;;;;;5025772;28;20454;-76
2023/09/20 11:52:30;;;;;;;3.83;2.80;;;25.00;99.90;;;;;;5020900;28;20450;-77
2023/09/20 11:55:03;;;;;;;6.07;3.67;;;25.20;99.90;;;;;;5013808;28;20435;-76
2023/09/20 11:57:29;;;;;;;4.07;3.30;;;25.50;99.90;;;;;;5015563;28;20275;-75
2023/09/20 11:59:55;;;;;;;5.40;3.23;;;26.30;99.90;;;;;;5019683;28;20473;-76
2023/09/20 12:02:21;;;;;;;4.40;3.47;;;27.10;99.90;;;;;;5019728;28;20204;-77
2023/09/20 12:04:51;;;;;;;4.33;2.93;;;27.70;97.70;;;;;;5002478;28;20214;-75
2023/09/20 12:07:17;;;;;;;4.60;2.80;;;28.30;95.80;;;;;;5022236;28;20272;-77
2023/09/20 12:09:43;;;;;;;3.57;2.70;;;28.80;94.00;;;;;;5009170;28;20442;-76
2023/09/20 12:12:10;;;;;;;6.20;3.87;;;29.10;92.20;;;;;;5019113;28;20444;-76
2023/09/20 12:14:40;;;;;;;4.93;2.90;;;29.40;91.10;;;;;;5028628;28;20199;-74
2023/09/20 12:17:07;;;;;;;4.30;3.27;;;29.90;90.00;;;;;;5026827;28;20480;-76
2023/09/20 12:19:33;;;;;;;3.20;2.90;;;29.90;85.90;;;;;;5030779;28;20478;-74
2023/09/20 12:22:00;;;;;;;3.30;2.57;;;29.90;84.30;;;;;;5028815;28;20498;-74
2023/09/20 12:24:26;;;;;;;4.90;3.00;;;30.00;81.90;;;;;;5011607;28;20402;-76
2023/09/20 12:26:54;;;;;;;3.33;2.50;;;29.90;81.50;;;;;;5031554;28;20419;-75
2023/09/20 12:29:20;;;;;;;4.90;3.23;;;30.30;80.60;;;;;;5031832;28;20180;-76
2023/09/20 12:31:47;;;;;;;3.30;2.90;;;30.40;78.20;;;;;;5028505;28;20436;-77
2023/09/20 12:34:14;;;;;;;5.07;2.90;;;30.70;77.00;;;;;;5011188;28;20211;-76
2023/09/20 12:36:39;;;;;;;3.80;2.97;;;31.00;74.70;;;;;;5003201;28;20403;-76
2023/09/20 12:39:08;;;;;;;4.10;3.00;;;31.30;73.10;;;;;;5018947;28;20467;-76
2023/09/20 12:41:37;;;;;;;3.67;3.37;;;31.50;71.80;;;;;;5019274;28;20680;-75
2023/09/20 12:44:02;;;;;;;5.57;3.40;;;31.70;69.00;;;;;;5017900;28;20408;-76
2023/09/20 12:46:28;;;;;;;4.10;3.13;;;31.80;68.10;;;;;;5033517;28;20447;-76
2023/09/20 12:48:55;;;;;;;4.00;2.90;;;32.10;66.40;;;;;;5015763;28;20393;-76
2023/09/20 12:51:21;;;;;;;3.90;2.80;;;32.10;65.20;;;;;;5021308;28;20412;-76
2023/09/20 12:53:46;;;;;;;3.67;2.93;;;32.00;65.10;;;;;;5018899;28;20508;-75
2023/09/20 12:56:13;;;;;;;3.40;3.10;;;32.10;64.80;;;;;;5019288;28;20547;-74
2023/09/20 12:58:42;;;;;;;5.23;3.20;;;32.00;64.60;;;;;;5022655;28;20192;-74
2023/09/20 13:01:10;;;;;;;3.93;3.30;;;31.80;64.20;;;;;;4992182;28;20413;-75
2023/09/20 13:03:37;;;;;;;3.23;2.87;;;31.80;62.20;;;;;;4996715;28;20952;-75
2023/09/20 13:06:03;;;;;;;4.50;3.47;;;31.70;63.30;;;;;;5017466;28;20457;-75
2023/09/20 13:08:29;;;;;;;6.27;3.17;;;31.80;62.40;;;;;;5018583;28;20428;-75
2023/09/20 13:10:55;;;;;;;4.10;3.13;;;31.60;61.60;;;;;;5016431;28;20465;-75
2023/09/20 13:13:20;;;;;;;3.70;3.30;;;31.60;61.20;;;;;;5016858;28;20219;-75
2023/09/20 13:15:47;;;;;;;3.80;3.50;;;31.60;60.30;;;;;;5016678;28;20185;-76
2023/09/20 13:18:13;;;;;;;5.27;3.20;;;31.90;59.70;;;;;;5017806;28;20421;-76
2023/09/20 13:20:42;;;;;;;3.40;2.93;;;31.80;58.80;;;;;;5018911;28;20450;-74
2023/09/20 13:23:09;;;;;;;3.47;2.90;;;32.10;58.60;;;;;;5017529;28;20470;-75
2023/09/20 13:25:35;;;;;;;3.60;2.80;;;32.30;58.20;;;;;;5019867;28;20423;-76
2023/09/20 13:28:01;;;;;;;3.50;3.20;;;32.30;58.00;;;;;;5011718;28;20522;-75
2023/09/20 13:30:26;;;;;;;4.23;3.23;;;32.70;57.10;;;;;;4999078;28;20492;-74